sensor_id;sensor_type;location;lat;lon;timestamp;temperature;humidity
10270;DHT22;5180;50.832;5.390;2022-12-07T00:01:23;5.80;99.90
10270;DHT22;5180;50.832;5.390;2022-12-07T00:03:52;5.90;99.90
10270;DHT22;5180;50.832;5.390;2022-12-07T00:06:19;5.90;99.90
10270;DHT22;5180;50.832;5.390;2022-12-07T00:08:45;5.90;99.90
10270;DHT22;5180;50.832;5.390;2022-12-07T00:11:18;6.00;99.90
10270;DHT22;5180;50.832;5.390;2022-12-07T00:13:45;6.00;99.90
10270;DHT22;5180;50.832;5.390;2022-12-07T00:16:18;6.00;99.90
10270;DHT22;5180;50.832;5.390;2022-12-07T00:18:44;6.00;99.90
10270;DHT22;5180;50.832;5.390;2022-12-07T00:21:19;6.00;99.90
10270;DHT22;5180;50.832;5.390;2022-12-07T00:23:45;5.90;99.90
10270;DHT22;5180;50.832;5.390;2022-12-07T00:26:17;5.90;99.90
10270;DHT22;5180;50.832;5.390;2022-12-07T00:28:51;5.90;99.90
10270;DHT22;5180;50.832;5.390;2022-12-07T00:31:19;5.90;99.90
10270;DHT22;5180;50.832;5.390;2022-12-07T00:33:46;5.90;99.90
10270;DHT22;5180;50.832;5.390;2022-12-07T00:36:17;5.90;99.90
10270;DHT22;5180;50.832;5.390;2022-12-07T00:38:43;5.90;99.90
10270;DHT22;5180;50.832;5.390;2022-12-07T00:43:37;6.00;99.90
10270;DHT22;5180;50.832;5.390;2022-12-07T00:46:03;5.90;99.90
10270;DHT22;5180;50.832;5.390;2022-12-07T00:48:28;6.00;99.90
10270;DHT22;5180;50.832;5.390;2022-12-07T00:50:55;5.90;99.90
10270;DHT22;5180;50.832;5.390;2022-12-07T00:53:20;5.80;99.90
10270;DHT22;5180;50.832;5.390;2022-12-07T00:55:46;5.70;99.90
10270;DHT22;5180;50.832;5.390;2022-12-07T00:58:12;5.70;99.90
10270;DHT22;5180;50.832;5.390;2022-12-07T01:00:39;5.60;99.90
10270;DHT22;5180;50.832;5.390;2022-12-07T01:03:08;5.60;99.90
10270;DHT22;5180;50.832;5.390;2022-12-07T01:05:34;5.60;99.90
10270;DHT22;5180;50.832;5.390;2022-12-07T01:08:00;5.70;99.90
10270;DHT22;5180;50.832;5.390;2022-12-07T01:10:26;5.70;99.90
10270;DHT22;5180;50.832;5.390;2022-12-07T01:12:51;5.70;99.90
10270;DHT22;5180;50.832;5.390;2022-12-07T01:15:17;5.70;99.90
10270;DHT22;5180;50.832;5.390;2022-12-07T01:17:43;5.70;99.90
10270;DHT22;5180;50.832;5.390;2022-12-07T01:20:09;5.70;99.90
10270;DHT22;5180;50.832;5.390;2022-12-07T01:22:39;5.60;99.90
10270;DHT22;5180;50.832;5.390;2022-12-07T01:25:06;5.60;99.90
10270;DHT22;5180;50.832;5.390;2022-12-07T01:27:33;5.60;99.90
10270;DHT22;5180;50.832;5.390;2022-12-07T01:29:58;5.60;99.90
10270;DHT22;5180;50.832;5.390;2022-12-07T01:32:24;5.60;99.90
10270;DHT22;5180;50.832;5.390;2022-12-07T01:34:50;5.50;99.90
10270;DHT22;5180;50.832;5.390;2022-12-07T01:37:15;5.60;99.90
10270;DHT22;5180;50.832;5.390;2022-12-07T01:39:41;5.60;99.90
10270;DHT22;5180;50.832;5.390;2022-12-07T01:42:11;5.60;99.90
10270;DHT22;5180;50.832;5.390;2022-12-07T01:47:41;5.60;99.90
10270;DHT22;5180;50.832;5.390;2022-12-07T01:50:07;5.70;99.90
10270;DHT22;5180;50.832;5.390;2022-12-07T01:52:35;5.70;99.90
10270;DHT22;5180;50.832;5.390;2022-12-07T01:55:08;5.70;99.90
10270;DHT22;5180;50.832;5.390;2022-12-07T01:57:40;5.70;99.90
10270;DHT22;5180;50.832;5.390;2022-12-07T02:00:07;5.70;99.90
10270;DHT22;5180;50.832;5.390;2022-12-07T02:02:36;5.80;99.90
10270;DHT22;5180;50.832;5.390;2022-12-07T02:05:04;5.80;99.90
10270;DHT22;5180;50.832;5.390;2022-12-07T02:07:32;5.80;99.90
10270;DHT22;5180;50.832;5.390;2022-12-07T02:10:16;5.80;99.90
10270;DHT22;5180;50.832;5.390;2022-12-07T02:12:47;5.80;99.90
10270;DHT22;5180;50.832;5.390;2022-12-07T02:15:14;5.80;99.90
10270;DHT22;5180;50.832;5.390;2022-12-07T02:17:49;5.80;99.90
10270;DHT22;5180;50.832;5.390;2022-12-07T02:21:11;5.80;99.90
10270;DHT22;5180;50.832;5.390;2022-12-07T02:29:14;5.50;99.90
10270;DHT22;5180;50.832;5.390;2022-12-07T02:31:54;5.50;99.90
10270;DHT22;5180;50.832;5.390;2022-12-07T02:37:03;5.30;99.90
10270;DHT22;5180;50.832;5.390;2022-12-07T02:39:53;5.20;99.90
10270;DHT22;5180;50.832;5.390;2022-12-07T02:42:25;5.10;99.90
10270;DHT22;5180;50.832;5.390;2022-12-07T02:44:52;5.10;99.90
10270;DHT22;5180;50.832;5.390;2022-12-07T02:47:20;5.00;99.90
10270;DHT22;5180;50.832;5.390;2022-12-07T02:49:47;5.10;99.90
10270;DHT22;5180;50.832;5.390;2022-12-07T02:52:12;5.10;99.90
10270;DHT22;5180;50.832;5.390;2022-12-07T02:54:38;5.20;99.90
10270;DHT22;5180;50.832;5.390;2022-12-07T02:57:14;5.20;99.90
10270;DHT22;5180;50.832;5.390;2022-12-07T02:59:58;5.30;99.90
10270;DHT22;5180;50.832;5.390;2022-12-07T03:02:57;5.30;99.90
10270;DHT22;5180;50.832;5.390;2022-12-07T03:11:01;5.50;99.90
10270;DHT22;5180;50.832;5.390;2022-12-07T03:13:37;5.50;99.90
10270;DHT22;5180;50.832;5.390;2022-12-07T03:16:28;5.60;99.90
10270;DHT22;5180;50.832;5.390;2022-12-07T03:19:05;5.60;99.90
10270;DHT22;5180;50.832;5.390;2022-12-07T03:21:42;5.60;99.90
10270;DHT22;5180;50.832;5.390;2022-12-07T03:24:29;5.60;99.90
10270;DHT22;5180;50.832;5.390;2022-12-07T03:27:04;5.70;99.90
10270;DHT22;5180;50.832;5.390;2022-12-07T03:29:36;5.70;99.90
10270;DHT22;5180;50.832;5.390;2022-12-07T03:34:56;5.70;99.90
10270;DHT22;5180;50.832;5.390;2022-12-07T03:37:33;5.70;99.90
10270;DHT22;5180;50.832;5.390;2022-12-07T03:42:33;5.70;99.90
10270;DHT22;5180;50.832;5.390;2022-12-07T03:45:00;5.80;99.90
10270;DHT22;5180;50.832;5.390;2022-12-07T03:47:48;5.80;99.90
10270;DHT22;5180;50.832;5.390;2022-12-07T03:50:31;5.80;99.90
10270;DHT22;5180;50.832;5.390;2022-12-07T03:53:05;5.70;99.90
10270;DHT22;5180;50.832;5.390;2022-12-07T03:55:37;5.80;99.90
10270;DHT22;5180;50.832;5.390;2022-12-07T03:58:07;5.70;99.90
10270;DHT22;5180;50.832;5.390;2022-12-07T04:00:35;5.60;99.90
10270;DHT22;5180;50.832;5.390;2022-12-07T04:03:00;5.70;99.90
10270;DHT22;5180;50.832;5.390;2022-12-07T04:05:26;5.60;99.90
10270;DHT22;5180;50.832;5.390;2022-12-07T04:07:53;5.60;99.90
10270;DHT22;5180;50.832;5.390;2022-12-07T04:10:18;5.60;99.90
10270;DHT22;5180;50.832;5.390;2022-12-07T04:12:44;5.60;99.90
10270;DHT22;5180;50.832;5.390;2022-12-07T04:15:10;5.60;99.90
10270;DHT22;5180;50.832;5.390;2022-12-07T04:17:36;5.60;99.90
10270;DHT22;5180;50.832;5.390;2022-12-07T04:20:02;5.50;99.90
10270;DHT22;5180;50.832;5.390;2022-12-07T04:22:29;5.40;99.90
10270;DHT22;5180;50.832;5.390;2022-12-07T04:24:54;5.40;99.90
10270;DHT22;5180;50.832;5.390;2022-12-07T04:27:20;5.40;99.90
10270;DHT22;5180;50.832;5.390;2022-12-07T04:29:46;5.40;99.90
10270;DHT22;5180;50.832;5.390;2022-12-07T04:32:11;5.30;99.90
10270;DHT22;5180;50.832;5.390;2022-12-07T04:34:37;5.20;99.90
10270;DHT22;5180;50.832;5.390;2022-12-07T04:37:03;5.20;99.90
10270;DHT22;5180;50.832;5.390;2022-12-07T04:39:31;5.00;99.90
10270;DHT22;5180;50.832;5.390;2022-12-07T04:41:58;4.90;99.90
10270;DHT22;5180;50.832;5.390;2022-12-07T04:44:25;4.80;99.90
10270;DHT22;5180;50.832;5.390;2022-12-07T04:46:52;4.60;99.90
10270;DHT22;5180;50.832;5.390;2022-12-07T04:49:18;4.60;99.90
10270;DHT22;5180;50.832;5.390;2022-12-07T04:51:44;4.50;99.90
10270;DHT22;5180;50.832;5.390;2022-12-07T04:54:11;4.50;99.90
10270;DHT22;5180;50.832;5.390;2022-12-07T04:56:38;4.50;99.90
10270;DHT22;5180;50.832;5.390;2022-12-07T04:59:04;4.50;99.90
10270;DHT22;5180;50.832;5.390;2022-12-07T05:01:30;4.50;99.90
10270;DHT22;5180;50.832;5.390;2022-12-07T05:03:56;4.50;99.90
10270;DHT22;5180;50.832;5.390;2022-12-07T05:06:22;4.50;99.90
10270;DHT22;5180;50.832;5.390;2022-12-07T05:08:47;4.50;99.90
10270;DHT22;5180;50.832;5.390;2022-12-07T05:11:14;4.50;99.90
10270;DHT22;5180;50.832;5.390;2022-12-07T05:14:00;4.50;99.90
10270;DHT22;5180;50.832;5.390;2022-12-07T05:16:26;4.60;99.90
10270;DHT22;5180;50.832;5.390;2022-12-07T05:18:52;4.60;99.90
10270;DHT22;5180;50.832;5.390;2022-12-07T05:21:18;4.70;99.90
10270;DHT22;5180;50.832;5.390;2022-12-07T05:23:43;4.70;99.90
10270;DHT22;5180;50.832;5.390;2022-12-07T05:26:09;4.80;99.90
10270;DHT22;5180;50.832;5.390;2022-12-07T05:28:35;4.80;99.90
10270;DHT22;5180;50.832;5.390;2022-12-07T05:31:01;4.80;99.90
10270;DHT22;5180;50.832;5.390;2022-12-07T05:33:26;4.80;99.90
10270;DHT22;5180;50.832;5.390;2022-12-07T05:35:52;4.70;99.90
10270;DHT22;5180;50.832;5.390;2022-12-07T05:38:17;4.70;99.90
10270;DHT22;5180;50.832;5.390;2022-12-07T05:40:43;4.60;99.90
10270;DHT22;5180;50.832;5.390;2022-12-07T05:43:09;4.60;99.90
10270;DHT22;5180;50.832;5.390;2022-12-07T05:45:35;4.50;99.90
10270;DHT22;5180;50.832;5.390;2022-12-07T05:48:01;4.50;99.90
10270;DHT22;5180;50.832;5.390;2022-12-07T05:50:26;4.40;99.90
10270;DHT22;5180;50.832;5.390;2022-12-07T05:52:53;4.30;99.90
10270;DHT22;5180;50.832;5.390;2022-12-07T05:55:19;4.30;99.90
10270;DHT22;5180;50.832;5.390;2022-12-07T05:57:44;4.20;99.90
10270;DHT22;5180;50.832;5.390;2022-12-07T06:00:30;4.20;99.90
10270;DHT22;5180;50.832;5.390;2022-12-07T06:02:56;4.20;99.90
10270;DHT22;5180;50.832;5.390;2022-12-07T06:05:21;4.10;99.90
10270;DHT22;5180;50.832;5.390;2022-12-07T06:07:47;4.00;99.90
10270;DHT22;5180;50.832;5.390;2022-12-07T06:10:13;4.00;99.90
10270;DHT22;5180;50.832;5.390;2022-12-07T06:12:38;4.10;99.90
10270;DHT22;5180;50.832;5.390;2022-12-07T06:15:08;4.20;99.90
10270;DHT22;5180;50.832;5.390;2022-12-07T06:17:35;4.20;99.90
10270;DHT22;5180;50.832;5.390;2022-12-07T06:20:01;4.30;99.90
10270;DHT22;5180;50.832;5.390;2022-12-07T06:22:26;4.30;99.90
10270;DHT22;5180;50.832;5.390;2022-12-07T06:24:52;4.40;99.90
10270;DHT22;5180;50.832;5.390;2022-12-07T06:27:17;4.50;99.90
10270;DHT22;5180;50.832;5.390;2022-12-07T06:29:43;4.50;99.90
10270;DHT22;5180;50.832;5.390;2022-12-07T06:32:09;4.50;99.90
10270;DHT22;5180;50.832;5.390;2022-12-07T06:34:35;4.60;99.90
10270;DHT22;5180;50.832;5.390;2022-12-07T06:37:00;4.60;99.90
10270;DHT22;5180;50.832;5.390;2022-12-07T06:39:27;4.70;99.90
10270;DHT22;5180;50.832;5.390;2022-12-07T06:41:53;4.70;99.90
10270;DHT22;5180;50.832;5.390;2022-12-07T06:44:20;4.70;99.90
10270;DHT22;5180;50.832;5.390;2022-12-07T06:46:47;4.80;99.90
10270;DHT22;5180;50.832;5.390;2022-12-07T06:49:13;4.80;99.90
10270;DHT22;5180;50.832;5.390;2022-12-07T06:51:39;4.80;99.90
10270;DHT22;5180;50.832;5.390;2022-12-07T06:54:08;4.80;99.90
10270;DHT22;5180;50.832;5.390;2022-12-07T06:56:33;4.80;99.90
10270;DHT22;5180;50.832;5.390;2022-12-07T06:58:59;4.80;99.90
10270;DHT22;5180;50.832;5.390;2022-12-07T07:01:25;4.90;99.90
10270;DHT22;5180;50.832;5.390;2022-12-07T07:03:50;4.80;99.90
10270;DHT22;5180;50.832;5.390;2022-12-07T07:06:16;4.90;99.90
10270;DHT22;5180;50.832;5.390;2022-12-07T07:08:42;4.90;99.90
10270;DHT22;5180;50.832;5.390;2022-12-07T07:11:08;4.90;99.90
10270;DHT22;5180;50.832;5.390;2022-12-07T07:13:35;4.80;99.90
10270;DHT22;5180;50.832;5.390;2022-12-07T07:16:00;4.90;99.90
10270;DHT22;5180;50.832;5.390;2022-12-07T07:18:26;4.80;99.90
10270;DHT22;5180;50.832;5.390;2022-12-07T07:20:53;4.80;99.90
10270;DHT22;5180;50.832;5.390;2022-12-07T07:23:20;4.80;99.90
10270;DHT22;5180;50.832;5.390;2022-12-07T07:25:47;4.80;99.90
10270;DHT22;5180;50.832;5.390;2022-12-07T07:28:13;4.80;99.90
10270;DHT22;5180;50.832;5.390;2022-12-07T07:30:38;4.70;99.90
10270;DHT22;5180;50.832;5.390;2022-12-07T07:33:05;4.60;99.90
10270;DHT22;5180;50.832;5.390;2022-12-07T07:35:32;4.60;99.90
10270;DHT22;5180;50.832;5.390;2022-12-07T07:37:58;4.50;99.90
10270;DHT22;5180;50.832;5.390;2022-12-07T07:40:25;4.50;99.90
10270;DHT22;5180;50.832;5.390;2022-12-07T07:42:52;4.40;99.90
10270;DHT22;5180;50.832;5.390;2022-12-07T07:45:20;4.40;99.90
10270;DHT22;5180;50.832;5.390;2022-12-07T07:47:46;4.40;99.90
10270;DHT22;5180;50.832;5.390;2022-12-07T07:50:12;4.40;99.90
10270;DHT22;5180;50.832;5.390;2022-12-07T07:52:38;4.40;99.90
10270;DHT22;5180;50.832;5.390;2022-12-07T07:55:04;4.40;99.90
10270;DHT22;5180;50.832;5.390;2022-12-07T07:57:30;4.40;99.90
10270;DHT22;5180;50.832;5.390;2022-12-07T07:59:56;4.40;99.90
10270;DHT22;5180;50.832;5.390;2022-12-07T08:02:22;4.30;99.90
10270;DHT22;5180;50.832;5.390;2022-12-07T08:04:48;4.30;99.90
10270;DHT22;5180;50.832;5.390;2022-12-07T08:07:14;4.30;99.90
10270;DHT22;5180;50.832;5.390;2022-12-07T08:09:41;4.20;99.90
10270;DHT22;5180;50.832;5.390;2022-12-07T08:12:07;4.30;99.90
10270;DHT22;5180;50.832;5.390;2022-12-07T08:14:33;4.30;99.90
10270;DHT22;5180;50.832;5.390;2022-12-07T08:16:59;4.30;99.90
10270;DHT22;5180;50.832;5.390;2022-12-07T08:19:25;4.30;99.90
10270;DHT22;5180;50.832;5.390;2022-12-07T08:21:51;4.20;99.90
10270;DHT22;5180;50.832;5.390;2022-12-07T08:24:17;4.30;99.90
10270;DHT22;5180;50.832;5.390;2022-12-07T08:26:42;4.20;99.90
10270;DHT22;5180;50.832;5.390;2022-12-07T08:29:08;4.30;99.90
10270;DHT22;5180;50.832;5.390;2022-12-07T08:31:34;4.50;99.90
10270;DHT22;5180;50.832;5.390;2022-12-07T08:34:00;4.80;99.90
10270;DHT22;5180;50.832;5.390;2022-12-07T08:36:26;5.10;99.90
10270;DHT22;5180;50.832;5.390;2022-12-07T08:38:51;5.40;99.90
10270;DHT22;5180;50.832;5.390;2022-12-07T08:41:17;5.60;99.90
10270;DHT22;5180;50.832;5.390;2022-12-07T08:43:43;5.90;99.90
10270;DHT22;5180;50.832;5.390;2022-12-07T08:46:13;6.10;99.90
10270;DHT22;5180;50.832;5.390;2022-12-07T08:48:53;6.30;99.90
10270;DHT22;5180;50.832;5.390;2022-12-07T08:51:21;6.50;99.90
10270;DHT22;5180;50.832;5.390;2022-12-07T08:53:48;6.70;99.90
10270;DHT22;5180;50.832;5.390;2022-12-07T08:56:15;6.90;99.90
10270;DHT22;5180;50.832;5.390;2022-12-07T08:58:41;7.00;99.90
10270;DHT22;5180;50.832;5.390;2022-12-07T09:01:06;7.00;99.90
10270;DHT22;5180;50.832;5.390;2022-12-07T09:03:32;7.00;99.90
10270;DHT22;5180;50.832;5.390;2022-12-07T09:05:58;6.80;99.90
10270;DHT22;5180;50.832;5.390;2022-12-07T09:08:30;6.60;99.90
10270;DHT22;5180;50.832;5.390;2022-12-07T09:10:56;6.50;99.90
10270;DHT22;5180;50.832;5.390;2022-12-07T09:13:22;6.60;99.90
10270;DHT22;5180;50.832;5.390;2022-12-07T09:15:48;6.80;99.90
10270;DHT22;5180;50.832;5.390;2022-12-07T09:18:13;7.10;99.90
10270;DHT22;5180;50.832;5.390;2022-12-07T09:20:39;7.40;99.90
10270;DHT22;5180;50.832;5.390;2022-12-07T09:23:08;7.70;99.90
10270;DHT22;5180;50.832;5.390;2022-12-07T09:25:34;7.90;99.90
10270;DHT22;5180;50.832;5.390;2022-12-07T09:28:00;8.20;99.90
10270;DHT22;5180;50.832;5.390;2022-12-07T09:30:27;8.40;99.90
10270;DHT22;5180;50.832;5.390;2022-12-07T09:32:57;8.60;99.90
10270;DHT22;5180;50.832;5.390;2022-12-07T09:35:23;9.00;99.90
10270;DHT22;5180;50.832;5.390;2022-12-07T09:37:49;9.30;99.90
10270;DHT22;5180;50.832;5.390;2022-12-07T09:40:16;9.50;99.90
10270;DHT22;5180;50.832;5.390;2022-12-07T09:42:44;9.60;99.90
10270;DHT22;5180;50.832;5.390;2022-12-07T09:45:15;9.60;99.90
10270;DHT22;5180;50.832;5.390;2022-12-07T09:47:42;9.50;99.90
10270;DHT22;5180;50.832;5.390;2022-12-07T09:50:14;9.30;99.90
10270;DHT22;5180;50.832;5.390;2022-12-07T09:52:41;9.20;99.90
10270;DHT22;5180;50.832;5.390;2022-12-07T09:55:12;9.10;99.90
10270;DHT22;5180;50.832;5.390;2022-12-07T09:57:38;9.10;99.90
10270;DHT22;5180;50.832;5.390;2022-12-07T10:00:11;9.20;99.90
10270;DHT22;5180;50.832;5.390;2022-12-07T10:02:43;9.40;99.90
10270;DHT22;5180;50.832;5.390;2022-12-07T10:05:14;9.40;99.90
10270;DHT22;5180;50.832;5.390;2022-12-07T10:07:41;9.20;99.90
10270;DHT22;5180;50.832;5.390;2022-12-07T10:10:17;8.90;99.90
10270;DHT22;5180;50.832;5.390;2022-12-07T10:15:21;8.60;99.90
10270;DHT22;5180;50.832;5.390;2022-12-07T10:17:52;8.40;99.90
10270;DHT22;5180;50.832;5.390;2022-12-07T10:20:26;8.20;99.90
10270;DHT22;5180;50.832;5.390;2022-12-07T10:23:04;8.10;99.90
10270;DHT22;5180;50.832;5.390;2022-12-07T10:25:36;8.00;99.90
10270;DHT22;5180;50.832;5.390;2022-12-07T10:28:17;7.80;99.90
10270;DHT22;5180;50.832;5.390;2022-12-07T10:31:14;7.60;99.90
10270;DHT22;5180;50.832;5.390;2022-12-07T10:33:59;7.50;99.90
10270;DHT22;5180;50.832;5.390;2022-12-07T10:36:30;7.60;99.90
10270;DHT22;5180;50.832;5.390;2022-12-07T10:39:13;7.70;99.90
10270;DHT22;5180;50.832;5.390;2022-12-07T10:41:59;7.80;99.90
10270;DHT22;5180;50.832;5.390;2022-12-07T10:44:30;8.20;99.90
10270;DHT22;5180;50.832;5.390;2022-12-07T10:50:10;8.80;99.90
10270;DHT22;5180;50.832;5.390;2022-12-07T10:55:16;9.40;99.90
10270;DHT22;5180;50.832;5.390;2022-12-07T10:58:17;9.90;99.90
10270;DHT22;5180;50.832;5.390;2022-12-07T11:00:51;10.40;99.90
10270;DHT22;5180;50.832;5.390;2022-12-07T11:03:23;10.80;99.90
10270;DHT22;5180;50.832;5.390;2022-12-07T11:11:34;10.30;99.90
10270;DHT22;5180;50.832;5.390;2022-12-07T11:16:49;9.90;99.90
10270;DHT22;5180;50.832;5.390;2022-12-07T11:22:09;9.40;99.90
10270;DHT22;5180;50.832;5.390;2022-12-07T11:24:48;9.30;99.90
10270;DHT22;5180;50.832;5.390;2022-12-07T11:27:40;9.00;99.90
10270;DHT22;5180;50.832;5.390;2022-12-07T11:30:20;8.90;99.90
10270;DHT22;5180;50.832;5.390;2022-12-07T11:33:03;8.90;99.90
10270;DHT22;5180;50.832;5.390;2022-12-07T11:38:24;8.90;99.90
10270;DHT22;5180;50.832;5.390;2022-12-07T11:40:56;9.10;99.90
10270;DHT22;5180;50.832;5.390;2022-12-07T11:43:53;9.00;99.90
10270;DHT22;5180;50.832;5.390;2022-12-07T11:46:22;9.10;99.90
10270;DHT22;5180;50.832;5.390;2022-12-07T11:49:08;9.20;99.90
10270;DHT22;5180;50.832;5.390;2022-12-07T11:51:37;9.30;99.90
10270;DHT22;5180;50.832;5.390;2022-12-07T11:54:34;9.40;99.90
10270;DHT22;5180;50.832;5.390;2022-12-07T11:57:02;9.50;99.90
10270;DHT22;5180;50.832;5.390;2022-12-07T11:59:50;9.90;99.90
10270;DHT22;5180;50.832;5.390;2022-12-07T12:02:49;10.40;99.90
10270;DHT22;5180;50.832;5.390;2022-12-07T12:05:22;11.00;99.90
10270;DHT22;5180;50.832;5.390;2022-12-07T12:07:56;11.50;99.90
10270;DHT22;5180;50.832;5.390;2022-12-07T12:10:35;11.80;99.90
10270;DHT22;5180;50.832;5.390;2022-12-07T12:18:38;12.00;99.90
10270;DHT22;5180;50.832;5.390;2022-12-07T12:21:11;12.20;99.90
10270;DHT22;5180;50.832;5.390;2022-12-07T12:23:49;12.40;99.90
10270;DHT22;5180;50.832;5.390;2022-12-07T12:26:18;12.50;99.90
10270;DHT22;5180;50.832;5.390;2022-12-07T12:31:38;12.70;99.90
10270;DHT22;5180;50.832;5.390;2022-12-07T12:35:20;12.70;99.90
10270;DHT22;5180;50.832;5.390;2022-12-07T12:37:39;12.80;99.90
10270;DHT22;5180;50.832;5.390;2022-12-07T12:42:53;13.30;99.90
10270;DHT22;5180;50.832;5.390;2022-12-07T12:45:31;13.30;99.90
10270;DHT22;5180;50.832;5.390;2022-12-07T12:50:31;12.70;99.90
10270;DHT22;5180;50.832;5.390;2022-12-07T12:53:14;12.30;99.90
10270;DHT22;5180;50.832;5.390;2022-12-07T13:01:31;11.20;99.90
10270;DHT22;5180;50.832;5.390;2022-12-07T13:03:34;10.80;99.90
10270;DHT22;5180;50.832;5.390;2022-12-07T13:08:46;10.20;99.90
10270;DHT22;5180;50.832;5.390;2022-12-07T13:11:41;9.90;99.90
10270;DHT22;5180;50.832;5.390;2022-12-07T13:17:03;9.40;99.90
10270;DHT22;5180;50.832;5.390;2022-12-07T13:25:26;8.90;99.90
10270;DHT22;5180;50.832;5.390;2022-12-07T13:28:02;8.80;99.90
10270;DHT22;5180;50.832;5.390;2022-12-07T13:30:33;8.70;99.90
10270;DHT22;5180;50.832;5.390;2022-12-07T13:33:05;8.60;99.90
10270;DHT22;5180;50.832;5.390;2022-12-07T13:35:36;8.60;99.90
10270;DHT22;5180;50.832;5.390;2022-12-07T13:38:13;8.70;99.90
10270;DHT22;5180;50.832;5.390;2022-12-07T13:40:40;8.80;99.90
10270;DHT22;5180;50.832;5.390;2022-12-07T13:43:13;8.80;99.90
10270;DHT22;5180;50.832;5.390;2022-12-07T13:45:40;8.90;99.90
10270;DHT22;5180;50.832;5.390;2022-12-07T13:48:44;9.10;99.90
10270;DHT22;5180;50.832;5.390;2022-12-07T13:51:18;9.20;99.90
10270;DHT22;5180;50.832;5.390;2022-12-07T13:53:54;9.30;99.90
10270;DHT22;5180;50.832;5.390;2022-12-07T13:56:28;9.30;99.90
10270;DHT22;5180;50.832;5.390;2022-12-07T13:58:57;9.30;99.90
10270;DHT22;5180;50.832;5.390;2022-12-07T14:01:23;9.30;99.90
10270;DHT22;5180;50.832;5.390;2022-12-07T14:03:49;9.30;99.90
10270;DHT22;5180;50.832;5.390;2022-12-07T14:06:33;9.20;99.90
10270;DHT22;5180;50.832;5.390;2022-12-07T14:09:29;9.10;99.90
10270;DHT22;5180;50.832;5.390;2022-12-07T14:11:56;9.10;99.90
10270;DHT22;5180;50.832;5.390;2022-12-07T14:14:26;9.10;99.90
10270;DHT22;5180;50.832;5.390;2022-12-07T14:17:10;9.10;99.90
10270;DHT22;5180;50.832;5.390;2022-12-07T14:24:49;8.90;99.90
10270;DHT22;5180;50.832;5.390;2022-12-07T14:27:23;8.80;99.90
10270;DHT22;5180;50.832;5.390;2022-12-07T14:29:51;8.70;99.90
10270;DHT22;5180;50.832;5.390;2022-12-07T14:32:23;8.60;99.90
10270;DHT22;5180;50.832;5.390;2022-12-07T14:35:17;8.50;99.90
10270;DHT22;5180;50.832;5.390;2022-12-07T14:37:45;8.40;99.90
10270;DHT22;5180;50.832;5.390;2022-12-07T14:40:20;8.20;99.90
10270;DHT22;5180;50.832;5.390;2022-12-07T14:42:48;8.00;99.90
10270;DHT22;5180;50.832;5.390;2022-12-07T14:45:17;8.00;99.90
10270;DHT22;5180;50.832;5.390;2022-12-07T14:47:44;7.90;99.90
10270;DHT22;5180;50.832;5.390;2022-12-07T14:50:16;7.80;99.90
10270;DHT22;5180;50.832;5.390;2022-12-07T14:52:43;7.60;99.90
10270;DHT22;5180;50.832;5.390;2022-12-07T14:55:24;7.50;99.90
10270;DHT22;5180;50.832;5.390;2022-12-07T14:57:50;7.40;99.90
10270;DHT22;5180;50.832;5.390;2022-12-07T15:00:17;7.40;99.90
10270;DHT22;5180;50.832;5.390;2022-12-07T15:02:44;7.30;99.90
10270;DHT22;5180;50.832;5.390;2022-12-07T15:05:10;7.30;99.90
10270;DHT22;5180;50.832;5.390;2022-12-07T15:07:36;7.20;99.90
10270;DHT22;5180;50.832;5.390;2022-12-07T15:10:02;7.20;99.90
10270;DHT22;5180;50.832;5.390;2022-12-07T15:12:28;7.20;99.90
10270;DHT22;5180;50.832;5.390;2022-12-07T15:14:54;7.10;99.90
10270;DHT22;5180;50.832;5.390;2022-12-07T15:17:19;7.10;99.90
10270;DHT22;5180;50.832;5.390;2022-12-07T15:19:45;7.10;99.90
10270;DHT22;5180;50.832;5.390;2022-12-07T15:22:11;7.10;99.90
10270;DHT22;5180;50.832;5.390;2022-12-07T15:24:37;7.00;99.90
10270;DHT22;5180;50.832;5.390;2022-12-07T15:27:03;7.00;99.90
10270;DHT22;5180;50.832;5.390;2022-12-07T15:29:28;7.00;99.90
10270;DHT22;5180;50.832;5.390;2022-12-07T15:31:54;7.00;99.90
10270;DHT22;5180;50.832;5.390;2022-12-07T15:34:20;6.90;99.90
10270;DHT22;5180;50.832;5.390;2022-12-07T15:36:46;6.90;99.90
10270;DHT22;5180;50.832;5.390;2022-12-07T15:39:12;6.90;99.90
10270;DHT22;5180;50.832;5.390;2022-12-07T15:41:37;6.80;99.90
10270;DHT22;5180;50.832;5.390;2022-12-07T15:44:03;6.80;99.90
10270;DHT22;5180;50.832;5.390;2022-12-07T15:46:47;6.80;99.90
10270;DHT22;5180;50.832;5.390;2022-12-07T15:49:15;6.90;99.90
10270;DHT22;5180;50.832;5.390;2022-12-07T15:51:42;6.80;99.90
10270;DHT22;5180;50.832;5.390;2022-12-07T15:54:13;6.80;99.90
10270;DHT22;5180;50.832;5.390;2022-12-07T15:56:41;6.80;99.90
10270;DHT22;5180;50.832;5.390;2022-12-07T15:59:06;6.70;99.90
10270;DHT22;5180;50.832;5.390;2022-12-07T16:01:32;6.80;99.90
10270;DHT22;5180;50.832;5.390;2022-12-07T16:03:58;6.80;99.90
10270;DHT22;5180;50.832;5.390;2022-12-07T16:06:24;6.70;99.90
10270;DHT22;5180;50.832;5.390;2022-12-07T16:08:50;6.70;99.90
10270;DHT22;5180;50.832;5.390;2022-12-07T16:11:16;6.70;99.90
10270;DHT22;5180;50.832;5.390;2022-12-07T16:13:42;6.70;99.90
10270;DHT22;5180;50.832;5.390;2022-12-07T16:16:11;6.60;99.90
10270;DHT22;5180;50.832;5.390;2022-12-07T16:18:38;6.60;99.90
10270;DHT22;5180;50.832;5.390;2022-12-07T16:21:04;6.60;99.90
10270;DHT22;5180;50.832;5.390;2022-12-07T16:23:30;6.50;99.90
10270;DHT22;5180;50.832;5.390;2022-12-07T16:26:14;6.50;99.90
10270;DHT22;5180;50.832;5.390;2022-12-07T16:28:39;6.50;99.90
10270;DHT22;5180;50.832;5.390;2022-12-07T16:31:25;6.50;99.90
10270;DHT22;5180;50.832;5.390;2022-12-07T16:33:54;6.40;99.90
10270;DHT22;5180;50.832;5.390;2022-12-07T16:36:20;6.40;99.90
10270;DHT22;5180;50.832;5.390;2022-12-07T16:38:47;6.30;99.90
10270;DHT22;5180;50.832;5.390;2022-12-07T16:41:13;6.30;99.90
10270;DHT22;5180;50.832;5.390;2022-12-07T16:43:39;6.20;99.90
10270;DHT22;5180;50.832;5.390;2022-12-07T16:46:04;6.20;99.90
10270;DHT22;5180;50.832;5.390;2022-12-07T16:48:30;6.10;99.90
10270;DHT22;5180;50.832;5.390;2022-12-07T16:50:56;6.00;99.90
10270;DHT22;5180;50.832;5.390;2022-12-07T16:53:23;5.90;99.90
10270;DHT22;5180;50.832;5.390;2022-12-07T16:55:50;5.80;99.90
10270;DHT22;5180;50.832;5.390;2022-12-07T16:58:16;5.80;99.90
10270;DHT22;5180;50.832;5.390;2022-12-07T17:00:43;5.70;99.90
10270;DHT22;5180;50.832;5.390;2022-12-07T17:03:09;5.70;99.90
10270;DHT22;5180;50.832;5.390;2022-12-07T17:05:43;5.60;99.90
10270;DHT22;5180;50.832;5.390;2022-12-07T17:08:09;5.60;99.90
10270;DHT22;5180;50.832;5.390;2022-12-07T17:10:37;5.60;99.90
10270;DHT22;5180;50.832;5.390;2022-12-07T17:13:04;5.50;99.90
10270;DHT22;5180;50.832;5.390;2022-12-07T17:16:02;5.60;99.90
10270;DHT22;5180;50.832;5.390;2022-12-07T17:18:33;5.60;99.90
10270;DHT22;5180;50.832;5.390;2022-12-07T17:21:07;5.60;99.90
10270;DHT22;5180;50.832;5.390;2022-12-07T17:23:35;5.70;99.90
10270;DHT22;5180;50.832;5.390;2022-12-07T17:26:22;5.70;99.90
10270;DHT22;5180;50.832;5.390;2022-12-07T17:28:48;5.70;99.90
10270;DHT22;5180;50.832;5.390;2022-12-07T17:31:15;5.70;99.90
10270;DHT22;5180;50.832;5.390;2022-12-07T17:33:41;5.70;99.90
10270;DHT22;5180;50.832;5.390;2022-12-07T17:36:18;5.70;99.90
10270;DHT22;5180;50.832;5.390;2022-12-07T17:38:44;5.70;99.90
10270;DHT22;5180;50.832;5.390;2022-12-07T17:41:11;5.70;99.90